aviador You're here:

KAZO Decoded Metar

KALAMAZOO in MI, USA
Report Time2017-06-29 11:53:00
UTC Time2017-06-29 12:23:59
Flight Rules vfr VFR
Wind210° at 11 kt
W.Decomp.*RWY 23: 10.5 kt HW 3.2 kt LCW
RWY 17: 8.0 kt HW 7.5 kt RCW
RWY 27: 6.0 kt HW 9.2 kt LCW
W.Rank210° ranks 5
Current wind is above 210° avg. (8.4)
Visibility9999 m
Phenomena:N/A
Clouds:N/A
Expected CloudBase > 1,600 ft AGL from Temp-Dew spread
CeilingNone
Temp21°C (ISA +8)
Dew Point17°C (78% RH)
AAT19.4°C
QNH1009 hPa
Density Alt2,195 ft
Elevation892 ft
Report Wrong Elevation
Raw Report
METAR KAZO 291153Z 21011KT 10SM CLR 21/17 A2980 RMK AO2 SLP085 60031
70036 T02110167 10211 20178 55006=

Extra information for KAZO:More info

Metar Taf Metar & Taf Last 4 Metars F.Rules Stats Wind Profile Meteogram Temp Stats Airport Information Weather charts Add Link Nearby VenuesMetar ALERT Operation Metar Decoded Social comments

AIRNAV info for KAZO